createdAt,value
2018-11-10T00:00:42.779Z,59.80
2018-11-10T00:03:11.207Z,52.70
2018-11-10T00:05:39.640Z,57.70
2018-11-10T00:08:08.154Z,55.83
2018-11-10T00:10:36.557Z,63.37
2018-11-10T00:13:05.289Z,53.90
2018-11-10T00:15:33.708Z,58.97
2018-11-10T00:18:02.166Z,60.00
2018-11-10T00:20:30.568Z,57.00
2018-11-10T00:22:59.012Z,52.40
2018-11-10T00:25:27.420Z,55.10
2018-11-10T00:27:55.928Z,57.30
2018-11-10T00:30:24.360Z,67.97
2018-11-10T00:32:52.809Z,51.33
2018-11-10T00:35:21.241Z,51.50
2018-11-10T00:37:49.714Z,59.93
2018-11-10T00:40:18.141Z,49.97
2018-11-10T00:42:46.700Z,52.77
2018-11-10T00:45:15.163Z,44.60
2018-11-10T00:47:43.627Z,53.30
2018-11-10T00:50:12.072Z,51.47
2018-11-10T00:52:40.564Z,56.13
2018-11-10T00:55:09.223Z,54.53
2018-11-10T00:57:37.667Z,50.57
2018-11-10T01:00:06.571Z,53.03
2018-11-10T01:02:35.041Z,58.60
2018-11-10T01:05:03.532Z,59.40
2018-11-10T01:07:32.544Z,56.13
2018-11-10T01:10:00.979Z,52.00
2018-11-10T01:12:29.451Z,57.53
2018-11-10T01:14:57.985Z,54.47
2018-11-10T01:17:26.413Z,64.47
2018-11-10T01:19:54.853Z,57.17
2018-11-10T01:22:23.272Z,48.97
2018-11-10T01:24:51.704Z,56.10
2018-11-10T01:27:20.148Z,61.43
2018-11-10T01:29:48.627Z,52.57
2018-11-10T01:32:17.102Z,59.20
2018-11-10T01:34:45.528Z,56.07
2018-11-10T01:37:13.976Z,48.50
2018-11-10T01:39:42.404Z,51.83
2018-11-10T01:42:10.819Z,54.13
2018-11-10T01:44:39.256Z,61.30
2018-11-10T01:47:07.701Z,52.37
2018-11-10T01:49:36.137Z,49.87
2018-11-10T01:52:04.617Z,54.97
2018-11-10T01:54:33.061Z,57.70
2018-11-10T01:57:01.477Z,56.80
2018-11-10T01:59:29.908Z,69.93
2018-11-10T02:01:58.316Z,54.70
2018-11-10T02:04:26.744Z,53.33
2018-11-10T02:06:55.169Z,56.80
2018-11-10T02:09:23.628Z,60.40
2018-11-10T02:11:52.044Z,59.03
2018-11-10T02:14:20.477Z,54.77
2018-11-10T02:16:48.924Z,48.47
2018-11-10T02:19:17.349Z,57.40
2018-11-10T02:21:45.809Z,48.40
2018-11-10T02:24:14.237Z,56.20
2018-11-10T02:26:42.750Z,54.77
2018-11-10T02:29:11.180Z,50.13
2018-11-10T02:31:39.612Z,50.43
2018-11-10T02:34:08.068Z,57.00
2018-11-10T02:36:36.552Z,60.07
2018-11-10T02:39:07.500Z,52.57
2018-11-10T02:41:36.039Z,54.70
2018-11-10T02:44:04.524Z,60.33
2018-11-10T02:46:32.960Z,58.30
2018-11-10T02:49:01.428Z,60.43
2018-11-10T02:51:29.864Z,64.80
2018-11-10T02:53:58.275Z,66.53
2018-11-10T02:56:26.768Z,72.30
2018-11-10T02:58:55.179Z,63.87
2018-11-10T03:01:23.616Z,55.57
2018-11-10T03:03:52.036Z,70.80
2018-11-10T03:06:20.465Z,56.83
2018-11-10T03:08:48.885Z,55.67
2018-11-10T03:11:17.332Z,57.23
2018-11-10T03:13:45.756Z,48.50
2018-11-10T03:16:14.239Z,58.23
2018-11-10T03:18:42.636Z,63.17
2018-11-10T03:21:11.081Z,62.80
2018-11-10T03:23:39.500Z,55.43
2018-11-10T03:26:07.948Z,54.70
2018-11-10T03:28:36.368Z,51.57
2018-11-10T03:31:04.838Z,67.77
2018-11-10T03:33:33.274Z,63.50
2018-11-10T03:36:01.697Z,62.83
2018-11-10T03:38:30.172Z,54.30
2018-11-10T03:40:58.621Z,62.77
2018-11-10T03:43:27.368Z,55.50
2018-11-10T03:45:57.197Z,50.63
2018-11-10T03:48:25.628Z,67.73
2018-11-10T03:50:54.036Z,58.23
2018-11-10T03:53:22.500Z,62.27
2018-11-10T03:55:50.920Z,63.03
2018-11-10T03:58:19.392Z,56.37
2018-11-10T04:00:47.848Z,73.67
2018-11-10T04:03:16.289Z,56.67
2018-11-10T04:05:44.704Z,55.30
2018-11-10T04:08:13.133Z,68.37
2018-11-10T04:10:41.549Z,62.70
2018-11-10T04:13:09.975Z,63.97
2018-11-10T04:15:38.442Z,56.27
2018-11-10T04:18:06.884Z,63.00
2018-11-10T04:20:35.312Z,61.40
2018-11-10T04:23:03.748Z,57.00
2018-11-10T04:25:32.161Z,70.13
2018-11-10T04:28:00.632Z,70.00
2018-11-10T04:30:29.057Z,62.70
2018-11-10T04:32:57.484Z,59.77
2018-11-10T04:35:25.936Z,61.03
2018-11-10T04:37:54.359Z,57.10
2018-11-10T04:40:22.798Z,61.77
2018-11-10T04:42:51.208Z,58.63
2018-11-10T04:45:19.644Z,65.70
2018-11-10T04:47:48.172Z,61.13
2018-11-10T04:50:16.628Z,66.73
2018-11-10T04:52:45.056Z,70.23
2018-11-10T04:55:13.532Z,69.23
2018-11-10T04:57:42.298Z,73.33
2018-11-10T05:00:13.445Z,60.80
2018-11-10T05:02:42.334Z,70.30
2018-11-10T05:05:10.833Z,60.07
2018-11-10T05:07:39.280Z,75.43
2018-11-10T05:10:08.817Z,57.83
2018-11-10T05:12:37.389Z,65.53
2018-11-10T05:15:07.059Z,60.37
2018-11-10T05:17:35.509Z,63.20
2018-11-10T05:20:04.218Z,68.60
2018-11-10T05:22:32.709Z,72.57
2018-11-10T05:25:01.159Z,64.60
2018-11-10T05:27:29.732Z,75.83
2018-11-10T05:29:58.397Z,72.30
2018-11-10T05:32:26.887Z,59.80
2018-11-10T05:34:55.322Z,67.53
2018-11-10T05:37:23.796Z,66.40
2018-11-10T05:39:52.228Z,71.33
2018-11-10T05:42:20.709Z,66.00
2018-11-10T05:44:49.148Z,68.03
2018-11-10T05:47:17.608Z,70.03
2018-11-10T05:49:46.044Z,71.50
2018-11-10T05:52:14.500Z,66.30
2018-11-10T05:54:42.923Z,65.57
2018-11-10T05:57:11.518Z,63.23
2018-11-10T05:59:39.878Z,76.67
2018-11-10T06:02:08.376Z,55.77
2018-11-10T06:04:36.836Z,68.40
2018-11-10T06:07:05.424Z,84.43
2018-11-10T06:09:33.907Z,71.77
2018-11-10T06:12:02.333Z,76.70
2018-11-10T06:14:30.756Z,66.40
2018-11-10T06:16:59.220Z,66.30
2018-11-10T06:19:27.653Z,68.53
2018-11-10T06:21:56.100Z,67.73
2018-11-10T06:24:24.571Z,56.60
2018-11-10T06:26:53.048Z,58.47
2018-11-10T06:29:21.489Z,72.20
2018-11-10T06:31:49.928Z,61.67
2018-11-10T06:34:18.387Z,65.77
2018-11-10T06:36:46.853Z,55.17
2018-11-10T06:39:16.146Z,64.37
2018-11-10T06:41:46.045Z,66.10
2018-11-10T06:44:14.476Z,70.53
2018-11-10T06:46:42.915Z,58.93
2018-11-10T06:49:11.345Z,62.60
2018-11-10T06:51:39.841Z,58.00
2018-11-10T06:54:08.295Z,60.20
2018-11-10T06:56:36.752Z,64.13
2018-11-10T06:59:06.355Z,66.67
2018-11-10T07:01:34.786Z,69.10
2018-11-10T07:04:03.339Z,66.43
2018-11-10T07:06:37.049Z,51.27
2018-11-10T07:09:08.301Z,53.20
2018-11-10T07:11:36.755Z,63.43
2018-11-10T07:14:05.475Z,60.67
2018-11-10T07:16:33.920Z,55.33
2018-11-10T07:19:02.365Z,58.23
2018-11-10T07:21:30.788Z,51.33
2018-11-10T07:23:59.236Z,56.30
2018-11-10T07:26:27.693Z,60.93
2018-11-10T07:28:56.131Z,60.10
2018-11-10T07:31:24.657Z,59.60
2018-11-10T07:33:53.112Z,67.67
2018-11-10T07:36:21.556Z,57.90
2018-11-10T07:38:49.996Z,55.00
2018-11-10T07:41:18.416Z,46.60
2018-11-10T07:43:46.875Z,63.93
2018-11-10T07:46:15.347Z,60.00
2018-11-10T07:48:43.788Z,50.47
2018-11-10T07:51:12.282Z,64.23
2018-11-10T07:53:40.705Z,50.73
2018-11-10T07:56:09.487Z,51.47
2018-11-10T07:58:37.942Z,55.60
2018-11-10T08:01:06.573Z,53.63
2018-11-10T08:03:35.027Z,61.13
2018-11-10T08:06:03.514Z,60.73
2018-11-10T08:08:31.932Z,56.73
2018-11-10T08:11:00.360Z,53.70
2018-11-10T08:13:28.805Z,56.93
2018-11-10T08:15:57.236Z,61.57
2018-11-10T08:18:25.741Z,55.50
2018-11-10T08:20:54.163Z,53.83
2018-11-10T08:23:22.598Z,69.03
2018-11-10T08:25:51.048Z,54.27
2018-11-10T08:28:19.496Z,60.27
2018-11-10T08:30:47.943Z,67.80
2018-11-10T08:33:16.384Z,56.40
2018-11-10T08:35:44.844Z,51.47
2018-11-10T08:38:13.272Z,61.80
2018-11-10T08:40:41.724Z,56.30
2018-11-10T08:43:10.144Z,58.77
2018-11-10T08:45:38.592Z,54.53
2018-11-10T08:48:07.044Z,54.77
2018-11-10T08:50:35.496Z,62.20
2018-11-10T08:53:03.939Z,70.50
2018-11-10T08:55:32.413Z,56.43
2018-11-10T08:58:00.862Z,60.57
2018-11-10T09:00:29.356Z,57.37
2018-11-10T09:02:57.788Z,54.93
2018-11-10T09:05:26.231Z,59.23
2018-11-10T09:07:54.664Z,55.13
2018-11-10T09:10:23.112Z,48.20
2018-11-10T09:12:51.584Z,62.03
2018-11-10T09:15:20.077Z,60.57
2018-11-10T09:17:48.571Z,57.57
2018-11-10T09:20:17.483Z,57.97
2018-11-10T09:22:45.949Z,58.03
2018-11-10T09:25:15.784Z,57.17
2018-11-10T09:27:44.306Z,49.27
2018-11-10T09:30:14.152Z,48.50
2018-11-10T09:32:42.829Z,62.07
2018-11-10T09:35:12.360Z,54.00
2018-11-10T09:37:40.832Z,54.20
2018-11-10T09:40:11.980Z,53.47
2018-11-10T09:42:40.600Z,53.07
2018-11-10T09:45:10.676Z,50.03
2018-11-10T09:47:39.274Z,50.33
2018-11-10T09:50:11.457Z,56.03
2018-11-10T09:52:40.004Z,44.10
2018-11-10T09:55:08.485Z,50.40
2018-11-10T09:57:37.519Z,57.97
2018-11-10T10:00:09.344Z,53.20
2018-11-10T10:02:38.302Z,59.20
2018-11-10T10:05:06.484Z,56.13
2018-11-10T10:07:34.927Z,55.33
2018-11-10T10:10:03.412Z,57.97
2018-11-10T10:12:31.877Z,53.57
2018-11-10T10:15:00.308Z,46.03
2018-11-10T10:17:28.767Z,55.97
2018-11-10T10:19:57.209Z,52.90
2018-11-10T10:22:25.657Z,61.30
2018-11-10T10:24:54.136Z,49.70
2018-11-10T10:27:22.644Z,56.57
2018-11-10T10:29:51.070Z,59.63
2018-11-10T10:32:19.529Z,49.37
2018-11-10T10:34:48.166Z,52.03
2018-11-10T10:37:16.436Z,56.50
2018-11-10T10:39:44.905Z,53.93
2018-11-10T10:42:13.355Z,54.27
2018-11-10T10:44:41.785Z,59.50
2018-11-10T10:47:10.260Z,53.17
2018-11-10T10:49:38.696Z,49.40
2018-11-10T10:52:07.140Z,51.60
2018-11-10T10:54:35.616Z,49.33
2018-11-10T10:57:04.132Z,57.37
2018-11-10T10:59:32.552Z,51.47
2018-11-10T11:02:06.292Z,48.37
2018-11-10T11:04:40.008Z,52.00
2018-11-10T11:07:08.447Z,56.10
2018-11-10T11:09:36.968Z,49.70
2018-11-10T11:12:05.380Z,52.07
2018-11-10T11:14:33.832Z,51.43
2018-11-10T11:17:02.250Z,51.87
2018-11-10T11:19:30.709Z,49.87
2018-11-10T11:21:59.181Z,54.00
2018-11-10T11:24:27.620Z,61.53
2018-11-10T11:26:56.068Z,50.67
2018-11-10T11:29:24.655Z,51.23
2018-11-10T11:31:53.040Z,53.13
2018-11-10T11:34:21.504Z,47.57
2018-11-10T11:36:50.032Z,55.83
2018-11-10T11:39:18.517Z,50.30
2018-11-10T11:41:47.025Z,52.60
2018-11-10T11:44:15.424Z,50.33
2018-11-10T11:46:43.859Z,55.77
2018-11-10T11:49:12.328Z,53.50
2018-11-10T11:51:40.845Z,53.73
2018-11-10T11:54:09.304Z,51.07
2018-11-10T11:56:37.745Z,49.17
2018-11-10T11:59:06.652Z,55.10
2018-11-10T12:01:35.092Z,48.00
2018-11-10T12:04:03.552Z,53.37
2018-11-10T12:06:32.012Z,55.37
2018-11-10T12:09:00.445Z,55.60
2018-11-10T12:11:28.895Z,46.93
2018-11-10T12:13:57.321Z,44.13
2018-11-10T12:16:27.712Z,51.63
2018-11-10T12:18:54.249Z,50.13
2018-11-10T12:21:22.719Z,52.07
2018-11-10T12:23:51.161Z,51.70
2018-11-10T12:26:19.648Z,48.47
2018-11-10T12:28:48.071Z,44.60
2018-11-10T12:31:16.536Z,48.17
2018-11-10T12:33:44.968Z,47.80
2018-11-10T12:36:13.416Z,49.40
2018-11-10T12:38:41.869Z,52.03
2018-11-10T12:41:10.337Z,49.00
2018-11-10T12:43:38.804Z,47.20
2018-11-10T12:46:07.256Z,46.80
2018-11-10T12:48:35.680Z,55.47
2018-11-10T12:51:04.429Z,53.40
2018-11-10T12:53:32.864Z,48.93
2018-11-10T12:56:01.321Z,48.93
2018-11-10T12:58:29.744Z,51.83
2018-11-10T13:00:58.197Z,52.87
2018-11-10T13:03:26.627Z,50.97
2018-11-10T13:05:55.076Z,45.47
2018-11-10T13:08:23.513Z,48.50
2018-11-10T13:10:52.001Z,50.43
2018-11-10T13:13:20.489Z,48.63
2018-11-10T13:15:48.936Z,48.47
2018-11-10T13:18:17.394Z,45.63
2018-11-10T13:20:45.890Z,53.53
2018-11-10T13:23:14.372Z,52.50
2018-11-10T13:25:42.812Z,35.47
2018-11-10T13:28:11.278Z,45.63
2018-11-10T13:30:39.717Z,40.67
2018-11-10T13:33:08.285Z,49.63
2018-11-10T13:35:36.740Z,48.20
2018-11-10T13:38:05.455Z,52.07
2018-11-10T13:40:33.900Z,48.80
2018-11-10T13:43:02.365Z,48.03
2018-11-10T13:45:30.930Z,46.13
2018-11-10T13:47:59.414Z,43.23
2018-11-10T13:50:27.929Z,44.10
2018-11-10T13:52:56.783Z,40.70
2018-11-10T13:55:24.823Z,47.13
2018-11-10T13:57:53.285Z,41.73
2018-11-10T14:00:21.729Z,43.97
2018-11-10T14:02:50.203Z,43.17
2018-11-10T14:05:18.659Z,45.70
2018-11-10T14:07:47.122Z,48.13
2018-11-10T14:10:16.240Z,45.97
2018-11-10T14:12:45.742Z,38.87
2018-11-10T14:15:14.148Z,39.03
2018-11-10T14:17:43.085Z,43.30
2018-11-10T14:20:13.392Z,35.60
2018-11-10T14:22:41.865Z,51.47
2018-11-10T14:25:11.990Z,46.33
2018-11-10T14:27:41.208Z,38.80
2018-11-10T14:30:11.832Z,45.60
2018-11-10T14:32:40.911Z,33.30
2018-11-10T14:35:10.128Z,33.53
2018-11-10T14:37:38.588Z,38.47
2018-11-10T14:40:08.731Z,47.83
2018-11-10T14:42:37.553Z,40.77
2018-11-10T14:45:07.476Z,35.97
2018-11-10T14:47:35.954Z,43.23
2018-11-10T14:50:04.653Z,33.63
2018-11-10T14:52:33.139Z,43.50
2018-11-10T14:55:01.564Z,34.33
2018-11-10T14:57:30.016Z,41.97
2018-11-10T14:59:58.459Z,40.47
2018-11-10T15:02:26.897Z,49.13
2018-11-10T15:04:55.400Z,40.43
2018-11-10T15:07:23.835Z,34.17
2018-11-10T15:09:52.284Z,39.73
2018-11-10T15:12:20.794Z,39.33
2018-11-10T15:14:49.237Z,40.50
2018-11-10T15:17:17.672Z,35.47
2018-11-10T15:19:46.139Z,39.27
2018-11-10T15:22:14.580Z,40.70
2018-11-10T15:24:43.042Z,42.37
2018-11-10T15:27:11.525Z,33.13
2018-11-10T15:29:40.032Z,38.90
2018-11-10T15:32:08.489Z,37.77
2018-11-10T15:34:36.928Z,29.53
2018-11-10T15:37:05.552Z,35.47
2018-11-10T15:39:34.040Z,26.60
2018-11-10T15:42:02.500Z,32.90
2018-11-10T15:44:30.936Z,29.67
2018-11-10T15:46:59.404Z,33.13
2018-11-10T15:49:27.944Z,34.23
2018-11-10T15:51:56.393Z,31.37
2018-11-10T15:54:24.833Z,29.80
2018-11-10T15:56:53.365Z,36.63
2018-11-10T15:59:21.798Z,42.47
2018-11-10T16:01:50.262Z,42.37
2018-11-10T16:04:18.720Z,38.57
2018-11-10T16:06:47.171Z,33.00
2018-11-10T16:09:15.699Z,28.33
2018-11-10T16:11:44.072Z,26.97
2018-11-10T16:14:12.508Z,23.20
2018-11-10T16:16:40.955Z,20.80
2018-11-10T16:19:09.383Z,21.00
2018-11-10T16:21:37.828Z,21.70
2018-11-10T16:24:06.291Z,27.97
2018-11-10T16:26:34.763Z,20.20
2018-11-10T16:29:03.201Z,26.23
2018-11-10T16:31:31.640Z,24.33
2018-11-10T16:34:00.068Z,30.40
2018-11-10T16:36:28.511Z,32.23
2018-11-10T16:38:56.944Z,26.07
2018-11-10T16:41:25.396Z,19.93
2018-11-10T16:43:53.833Z,28.53
2018-11-10T16:46:22.289Z,25.03
2018-11-10T16:48:50.729Z,20.87
2018-11-10T16:51:19.225Z,26.40
2018-11-10T16:53:47.665Z,30.80
2018-11-10T16:56:16.141Z,33.57
2018-11-10T16:58:44.640Z,30.93
2018-11-10T17:01:13.101Z,23.43
2018-11-10T17:03:41.536Z,28.23
2018-11-10T17:06:09.968Z,34.10
2018-11-10T17:08:38.460Z,29.83
2018-11-10T17:11:06.970Z,28.60
2018-11-10T17:13:35.436Z,31.83
2018-11-10T17:16:03.856Z,21.77
2018-11-10T17:18:32.311Z,32.07
2018-11-10T17:21:00.760Z,24.97
2018-11-10T17:23:29.207Z,26.37
2018-11-10T17:25:57.636Z,25.20
2018-11-10T17:28:26.096Z,29.03
2018-11-10T17:30:54.529Z,22.87
2018-11-10T17:33:22.977Z,28.03
2018-11-10T17:35:51.424Z,26.50
2018-11-10T17:38:19.880Z,24.57
2018-11-10T17:40:48.304Z,21.03
2018-11-10T17:43:16.763Z,37.60
2018-11-10T17:45:45.209Z,40.20
2018-11-10T17:48:13.725Z,41.57
2018-11-10T17:50:42.144Z,38.30
2018-11-10T17:53:10.737Z,37.17
2018-11-10T17:55:39.176Z,39.63
2018-11-10T17:58:07.634Z,23.27
2018-11-10T18:00:36.073Z,28.43
2018-11-10T18:03:04.836Z,24.40
2018-11-10T18:05:33.261Z,29.60
2018-11-10T18:08:01.749Z,31.43
2018-11-10T18:10:30.177Z,42.00
2018-11-10T18:12:58.652Z,39.67
2018-11-10T18:15:27.084Z,35.33
2018-11-10T18:17:55.516Z,33.50
2018-11-10T18:20:23.968Z,36.83
2018-11-10T18:22:53.237Z,40.73
2018-11-10T18:25:21.779Z,35.93
2018-11-10T18:27:50.256Z,33.67
2018-11-10T18:30:18.703Z,36.10
2018-11-10T18:32:47.263Z,40.40
2018-11-10T18:35:15.636Z,40.03
2018-11-10T18:37:44.075Z,35.07
2018-11-10T18:40:12.540Z,34.47
2018-11-10T18:42:40.998Z,27.80
2018-11-10T18:45:10.396Z,34.63
2018-11-10T18:47:39.380Z,27.67
2018-11-10T18:50:09.720Z,37.23
2018-11-10T18:52:38.156Z,52.03
2018-11-10T18:55:06.680Z,38.80
2018-11-10T18:57:35.236Z,43.50
2018-11-10T19:00:03.665Z,34.07
2018-11-10T19:02:32.096Z,29.27
2018-11-10T19:05:00.557Z,25.20
2018-11-10T19:07:29.023Z,30.70
2018-11-10T19:09:57.468Z,31.73
2018-11-10T19:12:25.928Z,28.70
2018-11-10T19:14:54.369Z,36.60
2018-11-10T19:17:22.804Z,31.57
2018-11-10T19:19:51.264Z,29.77
2018-11-10T19:22:19.699Z,31.47
2018-11-10T19:24:48.139Z,31.93
2018-11-10T19:27:16.583Z,28.57
2018-11-10T19:29:45.064Z,30.00
2018-11-10T19:32:13.500Z,27.60
2018-11-10T19:34:41.971Z,42.80
2018-11-10T19:37:10.403Z,38.30
2018-11-10T19:39:38.864Z,33.33
2018-11-10T19:42:07.291Z,36.33
2018-11-10T19:44:35.807Z,30.27
2018-11-10T19:47:04.216Z,30.20
2018-11-10T19:49:32.656Z,32.23
2018-11-10T19:52:01.323Z,28.20
2018-11-10T19:54:29.572Z,42.63
2018-11-10T19:56:58.035Z,34.70
2018-11-10T19:59:26.469Z,27.50
2018-11-10T20:01:54.920Z,32.73
2018-11-10T20:04:23.352Z,37.17
2018-11-10T20:06:51.878Z,28.87
2018-11-10T20:09:20.465Z,31.20
2018-11-10T20:11:48.928Z,38.03
2018-11-10T20:14:17.376Z,34.67
2018-11-10T20:16:45.849Z,44.30
2018-11-10T20:19:14.314Z,43.57
2018-11-10T20:21:43.064Z,37.37
2018-11-10T20:24:11.510Z,27.37
2018-11-10T20:26:40.040Z,27.23
2018-11-10T20:29:08.785Z,27.87
2018-11-10T20:31:37.327Z,37.83
2018-11-10T20:34:05.798Z,28.67
2018-11-10T20:36:34.268Z,24.20
2018-11-10T20:39:02.861Z,22.53
2018-11-10T20:41:31.277Z,28.83
2018-11-10T20:43:59.705Z,19.03
2018-11-10T20:46:28.148Z,22.50
2018-11-10T20:48:56.575Z,23.43
2018-11-10T20:51:25.032Z,23.07
2018-11-10T20:53:53.456Z,21.77
2018-11-10T20:56:21.980Z,23.93
2018-11-10T20:58:50.432Z,28.13
2018-11-10T21:01:18.884Z,29.40
2018-11-10T21:03:47.363Z,38.00
2018-11-10T21:06:15.856Z,40.27
2018-11-10T21:08:44.337Z,36.40
2018-11-10T21:11:12.776Z,34.47
2018-11-10T21:13:41.264Z,31.40
2018-11-10T21:16:09.736Z,28.97
2018-11-10T21:18:38.189Z,23.13
2018-11-10T21:21:06.644Z,29.80
2018-11-10T21:23:35.104Z,23.87
2018-11-10T21:26:03.556Z,22.40
2018-11-10T21:28:32.047Z,29.33
2018-11-10T21:31:00.512Z,28.63
2018-11-10T21:33:28.963Z,48.70
2018-11-10T21:35:57.413Z,38.40
2018-11-10T21:38:25.851Z,34.97
2018-11-10T21:40:54.300Z,27.47
2018-11-10T21:43:22.868Z,27.23
2018-11-10T21:45:51.283Z,23.73
2018-11-10T21:48:19.746Z,20.40
2018-11-10T21:50:48.215Z,29.97
2018-11-10T21:53:16.711Z,32.77
2018-11-10T21:55:46.296Z,34.13
2018-11-10T21:58:15.604Z,35.63
2018-11-10T22:00:44.098Z,39.33
2018-11-10T22:03:12.545Z,40.40
2018-11-10T22:05:40.981Z,42.27
2018-11-10T22:08:09.432Z,46.73
2018-11-10T22:10:37.860Z,40.30
2018-11-10T22:13:06.374Z,34.20
2018-11-10T22:15:34.870Z,42.47
2018-11-10T22:18:03.341Z,56.40
2018-11-10T22:20:31.771Z,47.77
2018-11-10T22:23:00.235Z,64.30
2018-11-10T22:25:28.735Z,69.40
2018-11-10T22:27:57.192Z,72.53
2018-11-10T22:30:25.641Z,70.30
2018-11-10T22:32:54.080Z,57.10
2018-11-10T22:35:22.536Z,54.60
2018-11-10T22:37:51.007Z,50.37
2018-11-10T22:40:20.791Z,50.70
2018-11-10T22:42:49.237Z,50.93
2018-11-10T22:45:19.093Z,45.33
2018-11-10T22:47:47.606Z,58.33
2018-11-10T22:50:17.483Z,53.43
2018-11-10T22:52:45.936Z,50.80
2018-11-10T22:55:14.412Z,58.13
2018-11-10T22:57:42.839Z,62.30
2018-11-10T23:00:16.539Z,51.20
2018-11-10T23:02:49.371Z,60.70
2018-11-10T23:05:18.510Z,58.27
2018-11-10T23:07:46.950Z,48.50
2018-11-10T23:10:15.905Z,56.37
2018-11-10T23:12:45.485Z,69.67
2018-11-10T23:15:13.972Z,52.27
2018-11-10T23:17:42.445Z,48.40
2018-11-10T23:20:14.043Z,52.07
2018-11-10T23:22:42.572Z,70.33
2018-11-10T23:25:12.417Z,66.80
2018-11-10T23:27:40.876Z,49.63
2018-11-10T23:30:12.853Z,66.10
2018-11-10T23:32:41.681Z,78.53
2018-11-10T23:35:10.853Z,58.40
2018-11-10T23:37:40.244Z,53.30
2018-11-10T23:40:10.589Z,62.90
2018-11-10T23:42:39.164Z,51.43
2018-11-10T23:45:08.101Z,63.73
2018-11-10T23:47:36.923Z,53.07
2018-11-10T23:50:05.975Z,59.83
2018-11-10T23:52:34.444Z,61.87
2018-11-10T23:55:02.927Z,61.73
2018-11-10T23:57:31.384Z,63.20
2018-11-10T23:59:59.832Z,73.33
